createdAt,value
2023-06-11T00:02:04.982Z,101609.44
2023-06-11T00:04:31.433Z,101607.72
2023-06-11T00:06:57.891Z,101609.00
2023-06-11T00:09:24.684Z,101616.06
2023-06-11T00:11:51.449Z,101610.66
2023-06-11T00:14:17.883Z,101611.28
2023-06-11T00:16:44.488Z,101613.22
2023-06-11T00:19:11.701Z,101612.56
2023-06-11T00:21:38.224Z,101609.22
2023-06-11T00:24:05.163Z,101604.50
2023-06-11T00:26:31.626Z,101600.97
2023-06-11T00:28:58.006Z,101596.13
2023-06-11T00:31:24.411Z,101595.56
2023-06-11T00:33:50.824Z,101591.53
2023-06-11T00:36:17.205Z,101594.63
2023-06-11T00:38:43.598Z,101585.56
2023-06-11T00:41:09.980Z,101601.34
2023-06-11T00:43:36.383Z,101594.09
2023-06-11T00:46:03.003Z,101598.47
2023-06-11T00:48:29.447Z,101588.22
2023-06-11T00:50:55.925Z,101585.69
2023-06-11T00:53:22.368Z,101584.53
2023-06-11T00:55:48.783Z,101596.41
2023-06-11T00:58:17.077Z,101595.47
2023-06-11T01:00:46.135Z,101600.44
2023-06-11T01:03:15.605Z,101596.63
2023-06-11T01:05:42.314Z,101598.91
2023-06-11T01:08:08.884Z,101596.38
2023-06-11T01:10:35.304Z,101592.34
2023-06-11T01:13:01.944Z,101596.69
2023-06-11T01:15:28.334Z,101597.38
2023-06-11T01:17:59.981Z,101599.69
2023-06-11T01:20:33.683Z,101602.19
2023-06-11T01:23:19.509Z,101592.28
2023-06-11T01:26:15.294Z,101595.16
2023-06-11T01:28:44.270Z,101588.94
2023-06-11T01:31:14.521Z,101592.84
2023-06-11T01:33:42.544Z,101603.28
2023-06-11T01:36:09.173Z,101612.69
2023-06-11T01:38:35.592Z,101606.13
2023-06-11T01:41:02.846Z,101609.09
2023-06-11T01:43:29.307Z,101606.09
2023-06-11T01:45:56.437Z,101600.66
2023-06-11T01:48:22.844Z,101608.00
2023-06-11T01:50:49.262Z,101607.50
2023-06-11T01:53:15.689Z,101605.75
2023-06-11T01:55:42.066Z,101607.44
2023-06-11T01:58:08.481Z,101607.31
2023-06-11T02:00:34.927Z,101592.28
2023-06-11T02:03:01.396Z,101595.38
2023-06-11T02:05:27.843Z,101600.31
2023-06-11T02:07:54.261Z,101602.34
2023-06-11T02:10:20.666Z,101608.09
2023-06-11T02:12:47.282Z,101605.47
2023-06-11T02:15:14.577Z,101597.28
2023-06-11T02:17:41.236Z,101607.66
2023-06-11T02:20:08.189Z,101600.97
2023-06-11T02:22:35.405Z,101602.44
2023-06-11T02:25:02.893Z,101590.69
2023-06-11T02:27:29.276Z,101594.56
2023-06-11T02:29:55.700Z,101592.16
2023-06-11T02:32:22.126Z,101593.84
2023-06-11T02:34:48.692Z,101592.09
2023-06-11T02:37:15.178Z,101597.59
2023-06-11T02:39:41.559Z,101603.91
2023-06-11T02:42:08.507Z,101600.88
2023-06-11T02:44:35.405Z,101588.09
2023-06-11T02:47:01.861Z,101599.47
2023-06-11T02:49:28.316Z,101604.16
2023-06-11T02:51:54.744Z,101593.69
2023-06-11T02:54:21.257Z,101601.47
2023-06-11T02:56:47.714Z,101597.59
2023-06-11T02:59:14.172Z,101592.19
2023-06-11T03:01:40.622Z,101599.53
2023-06-11T03:04:07.110Z,101600.53
2023-06-11T03:06:34.412Z,101597.09
2023-06-11T03:09:00.784Z,101582.28
2023-06-11T03:11:27.340Z,101595.69
2023-06-11T03:13:53.751Z,101587.41
2023-06-11T03:16:20.235Z,101592.84
2023-06-11T03:18:46.866Z,101595.63
2023-06-11T03:21:13.340Z,101598.38
2023-06-11T03:23:40.101Z,101595.81
2023-06-11T03:26:06.529Z,101598.91
2023-06-11T03:28:32.913Z,101600.38
2023-06-11T03:30:59.596Z,101598.63
2023-06-11T03:33:25.963Z,101598.50
2023-06-11T03:35:52.528Z,101590.84
2023-06-11T03:38:18.911Z,101601.09
2023-06-11T03:40:45.285Z,101600.13
2023-06-11T03:43:11.729Z,101595.56
2023-06-11T03:45:38.078Z,101599.84
2023-06-11T03:48:04.785Z,101607.81
2023-06-11T03:50:31.454Z,101609.44
2023-06-11T03:52:58.124Z,101605.00
2023-06-11T03:55:24.546Z,101604.22
2023-06-11T03:57:50.988Z,101609.75
2023-06-11T04:00:17.630Z,101616.69
2023-06-11T04:02:44.145Z,101616.09
2023-06-11T04:05:10.828Z,101613.91
2023-06-11T04:07:37.312Z,101610.91
2023-06-11T04:10:03.805Z,101612.03
2023-06-11T04:12:30.259Z,101618.97
2023-06-11T04:14:57.393Z,101621.03
2023-06-11T04:17:23.949Z,101617.25
2023-06-11T04:19:50.450Z,101619.56
2023-06-11T04:22:17.005Z,101622.88
2023-06-11T04:24:43.498Z,101626.00
2023-06-11T04:27:10.058Z,101623.13
2023-06-11T04:29:36.477Z,101627.59
2023-06-11T04:32:03.029Z,101630.59
2023-06-11T04:34:30.233Z,101624.22
2023-06-11T04:36:57.665Z,101632.16
2023-06-11T04:39:24.305Z,101624.41
2023-06-11T04:41:50.793Z,101628.09
2023-06-11T04:44:17.553Z,101631.50
2023-06-11T04:46:44.024Z,101628.81
2023-06-11T04:49:10.478Z,101624.25
2023-06-11T04:51:36.877Z,101640.47
2023-06-11T04:54:03.634Z,101639.00
2023-06-11T04:56:30.042Z,101632.06
2023-06-11T04:58:56.469Z,101635.63
2023-06-11T05:01:22.901Z,101632.25
2023-06-11T05:03:49.599Z,101635.09
2023-06-11T05:06:16.085Z,101638.50
2023-06-11T05:08:42.522Z,101642.91
2023-06-11T05:11:08.964Z,101636.19
2023-06-11T05:13:35.394Z,101630.56
2023-06-11T05:16:01.865Z,101635.28
2023-06-11T05:18:29.463Z,101638.03
2023-06-11T05:20:55.906Z,101632.59
2023-06-11T05:23:22.555Z,101639.56
2023-06-11T05:25:49.037Z,101642.41
2023-06-11T05:28:15.970Z,101639.22
2023-06-11T05:30:43.001Z,101637.81
2023-06-11T05:33:09.527Z,101638.94
2023-06-11T05:35:36.361Z,101643.13
2023-06-11T05:38:02.886Z,101638.44
2023-06-11T05:40:29.298Z,101644.94
2023-06-11T05:42:55.860Z,101643.47
2023-06-11T05:45:22.266Z,101645.13
2023-06-11T05:47:48.749Z,101640.59
2023-06-11T05:50:15.182Z,101649.81
2023-06-11T05:52:41.632Z,101647.38
2023-06-11T05:55:08.222Z,101641.72
2023-06-11T05:57:34.729Z,101648.00
2023-06-11T06:00:01.090Z,101654.09
2023-06-11T06:02:30.018Z,101650.56
2023-06-11T06:04:58.127Z,101652.72
2023-06-11T06:07:24.646Z,101656.72
2023-06-11T06:09:51.063Z,101658.34
2023-06-11T06:12:17.475Z,101666.31
2023-06-11T06:14:43.827Z,101656.31
2023-06-11T06:17:10.204Z,101661.22
2023-06-11T06:19:36.575Z,101659.81
2023-06-11T06:22:03.007Z,101664.38
2023-06-11T06:24:29.401Z,101661.75
2023-06-11T06:26:55.791Z,101664.94
2023-06-11T06:29:22.174Z,101670.16
2023-06-11T06:31:48.605Z,101671.53
2023-06-11T06:34:15.115Z,101661.28
2023-06-11T06:36:41.521Z,101668.34
2023-06-11T06:39:08.073Z,101666.13
2023-06-11T06:41:34.466Z,101662.50
2023-06-11T06:44:00.877Z,101667.41
2023-06-11T06:46:27.370Z,101655.13
2023-06-11T06:48:53.865Z,101658.09
2023-06-11T06:51:20.387Z,101664.69
2023-06-11T06:53:47.690Z,101660.75
2023-06-11T06:56:14.800Z,101660.34
2023-06-11T06:58:41.629Z,101666.56
2023-06-11T07:01:08.097Z,101655.16
2023-06-11T07:03:34.529Z,101660.69
2023-06-11T07:06:01.563Z,101666.94
2023-06-11T07:08:28.131Z,101662.44
2023-06-11T07:10:55.911Z,101666.09
2023-06-11T07:13:25.283Z,101662.28
2023-06-11T07:15:52.278Z,101665.75
2023-06-11T07:18:18.862Z,101668.94
2023-06-11T07:20:45.700Z,101670.59
2023-06-11T07:23:12.439Z,101667.03
2023-06-11T07:25:38.945Z,101673.09
2023-06-11T07:28:06.819Z,101672.97
2023-06-11T07:30:34.126Z,101664.13
2023-06-11T07:33:00.790Z,101672.16
2023-06-11T07:35:27.848Z,101664.47
2023-06-11T07:37:54.737Z,101662.78
2023-06-11T07:40:21.665Z,101671.50
2023-06-11T07:42:48.798Z,101667.00
2023-06-11T07:45:16.266Z,101670.66
2023-06-11T07:47:43.051Z,101670.94
2023-06-11T07:50:11.331Z,101673.34
2023-06-11T07:52:38.190Z,101666.56
2023-06-11T07:55:05.011Z,101672.41
2023-06-11T07:57:31.380Z,101670.59
2023-06-11T07:59:57.837Z,101663.03
2023-06-11T08:02:24.432Z,101665.44
2023-06-11T08:04:50.879Z,101670.88
2023-06-11T08:07:17.350Z,101677.88
2023-06-11T08:09:44.173Z,101669.16
2023-06-11T08:12:10.773Z,101677.50
2023-06-11T08:14:37.337Z,101676.06
2023-06-11T08:17:04.283Z,101674.03
2023-06-11T08:19:30.790Z,101677.97
2023-06-11T08:21:57.455Z,101676.28
2023-06-11T08:24:23.952Z,101671.91
2023-06-11T08:26:50.399Z,101672.47
2023-06-11T08:29:17.059Z,101666.56
2023-06-11T08:31:44.194Z,101673.00
2023-06-11T08:34:10.984Z,101660.00
2023-06-11T08:36:37.549Z,101663.16
2023-06-11T08:39:04.002Z,101665.66
2023-06-11T08:41:30.455Z,101662.84
2023-06-11T08:44:00.422Z,101657.72
2023-06-11T08:46:26.890Z,101659.09
2023-06-11T08:49:19.334Z,101661.81
2023-06-11T08:51:46.521Z,101665.19
2023-06-11T08:54:13.465Z,101664.19
2023-06-11T08:56:39.902Z,101663.13
2023-06-11T08:59:07.496Z,101656.22
2023-06-11T09:01:33.975Z,101653.81
2023-06-11T09:04:00.643Z,101653.06
2023-06-11T09:06:27.428Z,101651.19
2023-06-11T09:09:00.657Z,101657.56
2023-06-11T09:11:33.877Z,101655.00
2023-06-11T09:14:00.402Z,101644.53
2023-06-11T09:16:26.908Z,101647.91
2023-06-11T09:18:55.740Z,101640.88
2023-06-11T09:21:23.971Z,101650.47
2023-06-11T09:23:50.507Z,101648.06
2023-06-11T09:26:18.026Z,101639.34
2023-06-11T09:28:44.465Z,101638.28
2023-06-11T09:31:10.854Z,101637.22
2023-06-11T09:33:37.930Z,101640.84
2023-06-11T09:36:04.602Z,101640.16
2023-06-11T09:38:34.479Z,101644.72
2023-06-11T09:41:01.409Z,101638.66
2023-06-11T09:43:27.839Z,101637.75
2023-06-11T09:45:55.900Z,101644.69
2023-06-11T09:48:26.175Z,101637.34
2023-06-11T09:50:54.262Z,101638.00
2023-06-11T09:53:22.817Z,101645.84
2023-06-11T09:56:05.690Z,101635.81
2023-06-11T09:58:39.772Z,101633.88
2023-06-11T10:01:07.798Z,101642.41
2023-06-11T10:03:34.727Z,101640.13
2023-06-11T10:06:06.351Z,101638.19
2023-06-11T10:08:35.371Z,101642.91
2023-06-11T10:11:03.479Z,101646.69
2023-06-11T10:13:31.442Z,101644.22
2023-06-11T10:16:02.855Z,101641.41
2023-06-11T10:18:29.606Z,101640.13
2023-06-11T10:20:59.370Z,101642.97
2023-06-11T10:23:40.740Z,101633.66
2023-06-11T10:26:08.855Z,101654.94
2023-06-11T10:28:36.119Z,101643.19
2023-06-11T10:31:02.689Z,101647.94
2023-06-11T10:33:43.199Z,101635.66
2023-06-11T10:36:09.725Z,101636.56
2023-06-11T10:38:39.358Z,101632.72
2023-06-11T10:41:06.199Z,101635.66
2023-06-11T10:43:32.863Z,101638.81
2023-06-11T10:46:06.602Z,101635.50
2023-06-11T10:48:33.210Z,101632.47
2023-06-11T10:51:03.684Z,101632.66
2023-06-11T10:53:40.969Z,101624.59
2023-06-11T10:56:08.828Z,101631.66
2023-06-11T10:58:35.818Z,101621.56
2023-06-11T11:01:02.366Z,101625.88
2023-06-11T11:03:29.007Z,101626.13
2023-06-11T11:05:55.580Z,101634.78
2023-06-11T11:08:24.853Z,101627.81
2023-06-11T11:10:56.789Z,101632.22
2023-06-11T11:13:23.757Z,101634.78
2023-06-11T11:15:51.900Z,101627.47
2023-06-11T11:18:18.877Z,101618.97
2023-06-11T11:20:45.521Z,101620.59
2023-06-11T11:23:12.172Z,101609.97
2023-06-11T11:25:38.609Z,101610.31
2023-06-11T11:28:05.030Z,101617.09
2023-06-11T11:30:31.466Z,101618.38
2023-06-11T11:32:58.513Z,101611.84
2023-06-11T11:35:25.062Z,101612.84
2023-06-11T11:37:51.548Z,101604.38
2023-06-11T11:40:22.652Z,101601.03
2023-06-11T11:42:50.596Z,101599.69
2023-06-11T11:45:18.219Z,101604.66
2023-06-11T11:47:45.890Z,101604.50
2023-06-11T11:50:23.384Z,101607.47
2023-06-11T11:53:09.957Z,101610.19
2023-06-11T11:55:52.418Z,101601.53
2023-06-11T11:58:23.137Z,101599.69
2023-06-11T12:00:54.970Z,101598.00
2023-06-11T12:03:23.097Z,101595.09
2023-06-11T12:06:04.207Z,101596.50
2023-06-11T12:08:32.443Z,101593.22
2023-06-11T12:10:59.912Z,101596.31
2023-06-11T12:13:26.731Z,101591.78
2023-06-11T12:15:54.393Z,101594.38
2023-06-11T12:18:21.279Z,101591.53
2023-06-11T12:20:47.800Z,101588.69
2023-06-11T12:23:14.352Z,101589.84
2023-06-11T12:25:40.950Z,101588.72
2023-06-11T12:28:07.372Z,101586.53
2023-06-11T12:30:34.979Z,101585.28
2023-06-11T12:33:01.446Z,101591.47
2023-06-11T12:35:29.436Z,101589.34
2023-06-11T12:37:56.131Z,101579.56
2023-06-11T12:40:22.769Z,101583.03
2023-06-11T12:42:49.593Z,101581.97
2023-06-11T12:45:16.074Z,101586.34
2023-06-11T12:47:42.611Z,101578.28
2023-06-11T12:50:09.542Z,101568.13
2023-06-11T12:52:36.163Z,101578.19
2023-06-11T12:55:02.584Z,101567.94
2023-06-11T12:57:29.150Z,101572.03
2023-06-11T12:59:55.549Z,101572.16
2023-06-11T13:02:21.947Z,101573.47
2023-06-11T13:04:48.402Z,101582.09
2023-06-11T13:07:14.904Z,101572.91
2023-06-11T13:09:41.341Z,101585.16
2023-06-11T13:12:08.295Z,101571.69
2023-06-11T13:14:34.683Z,101569.47
2023-06-11T13:17:01.100Z,101566.19
2023-06-11T13:19:27.521Z,101564.25
2023-06-11T13:21:54.339Z,101561.31
2023-06-11T13:24:20.782Z,101561.47
2023-06-11T13:26:47.268Z,101558.63
2023-06-11T13:29:13.695Z,101558.22
2023-06-11T13:31:40.273Z,101554.75
2023-06-11T13:34:06.853Z,101558.81
2023-06-11T13:36:33.437Z,101552.38
2023-06-11T13:38:59.845Z,101562.06
2023-06-11T13:41:26.284Z,101558.91
2023-06-11T13:43:52.687Z,101555.00
2023-06-11T13:46:19.211Z,101559.09
2023-06-11T13:48:45.775Z,101562.66
2023-06-11T13:51:12.237Z,101568.13
2023-06-11T13:53:38.915Z,101563.44
2023-06-11T13:56:05.428Z,101554.84
2023-06-11T13:58:31.896Z,101569.00
2023-06-11T14:00:58.367Z,101551.69
2023-06-11T14:03:24.893Z,101554.41
2023-06-11T14:05:51.468Z,101547.25
2023-06-11T14:08:17.962Z,101546.56
2023-06-11T14:10:47.966Z,101550.97
2023-06-11T14:13:14.480Z,101542.25
2023-06-11T14:15:40.916Z,101545.75
2023-06-11T14:18:07.390Z,101544.56
2023-06-11T14:20:33.837Z,101545.34
2023-06-11T14:23:00.330Z,101540.66
2023-06-11T14:25:26.746Z,101538.31
2023-06-11T14:27:53.149Z,101539.91
2023-06-11T14:30:19.549Z,101540.66
2023-06-11T14:32:46.031Z,101537.31
2023-06-11T14:35:12.527Z,101539.00
2023-06-11T14:37:38.947Z,101544.66
2023-06-11T14:40:06.180Z,101538.53
2023-06-11T14:42:32.621Z,101531.72
2023-06-11T14:44:59.095Z,101525.66
2023-06-11T14:47:25.570Z,101523.69
2023-06-11T14:49:52.020Z,101522.41
2023-06-11T14:52:18.423Z,101525.84
2023-06-11T14:54:44.866Z,101512.78
2023-06-11T14:57:16.009Z,101513.38
2023-06-11T14:59:43.308Z,101510.47
2023-06-11T15:02:10.362Z,101508.97
2023-06-11T15:04:37.384Z,101514.44
2023-06-11T15:07:03.989Z,101513.78
2023-06-11T15:09:30.362Z,101515.88
2023-06-11T15:11:56.786Z,101508.53
2023-06-11T15:14:23.180Z,101498.16
2023-06-11T15:16:49.747Z,101506.00
2023-06-11T15:19:16.284Z,101501.63
2023-06-11T15:21:42.725Z,101505.44
2023-06-11T15:24:09.170Z,101500.88
2023-06-11T15:26:35.596Z,101493.63
2023-06-11T15:29:02.029Z,101503.13
2023-06-11T15:31:28.482Z,101494.38
2023-06-11T15:33:55.192Z,101493.97
2023-06-11T15:36:21.570Z,101502.28
2023-06-11T15:38:47.912Z,101496.81
2023-06-11T15:41:16.305Z,101491.09
2023-06-11T15:43:43.000Z,101485.25
2023-06-11T15:46:09.405Z,101496.13
2023-06-11T15:48:36.981Z,101495.66
2023-06-11T15:51:03.477Z,101492.53
2023-06-11T15:53:30.156Z,101493.69
2023-06-11T15:55:56.573Z,101481.13
2023-06-11T15:58:23.020Z,101489.88
2023-06-11T16:00:49.468Z,101485.00
2023-06-11T16:03:15.965Z,101496.78
2023-06-11T16:05:42.491Z,101487.84
2023-06-11T16:08:08.919Z,101490.59
2023-06-11T16:10:35.325Z,101482.50
2023-06-11T16:13:01.776Z,101490.16
2023-06-11T16:15:28.189Z,101497.16
2023-06-11T16:17:54.735Z,101486.69
2023-06-11T16:20:21.383Z,101485.28
2023-06-11T16:22:47.748Z,101493.84
2023-06-11T16:25:14.459Z,101489.72
2023-06-11T16:27:41.107Z,101489.09
2023-06-11T16:30:08.596Z,101488.59
2023-06-11T16:32:35.136Z,101483.22
2023-06-11T16:35:03.721Z,101484.63
2023-06-11T16:37:30.356Z,101483.38
2023-06-11T16:39:56.918Z,101473.84
2023-06-11T16:42:23.307Z,101483.06
2023-06-11T16:44:49.703Z,101481.31
2023-06-11T16:47:16.558Z,101475.75
2023-06-11T16:49:43.121Z,101478.44
2023-06-11T16:52:09.697Z,101471.78
2023-06-11T16:54:36.136Z,101476.25
2023-06-11T16:57:02.721Z,101476.88
2023-06-11T16:59:29.210Z,101478.44
2023-06-11T17:01:55.615Z,101480.53
2023-06-11T17:04:22.221Z,101471.81
2023-06-11T17:06:48.667Z,101477.53
2023-06-11T17:09:15.098Z,101474.97
2023-06-11T17:11:41.503Z,101480.50
2023-06-11T17:14:07.932Z,101478.28
2023-06-11T17:16:34.402Z,101472.91
2023-06-11T17:19:00.890Z,101473.84
2023-06-11T17:21:27.312Z,101479.53
2023-06-11T17:23:53.699Z,101483.19
2023-06-11T17:26:20.140Z,101495.41
2023-06-11T17:28:46.543Z,101480.47
2023-06-11T17:31:12.965Z,101481.59
2023-06-11T17:33:39.511Z,101488.25
2023-06-11T17:36:05.998Z,101485.66
2023-06-11T17:38:32.376Z,101481.69
2023-06-11T17:40:58.745Z,101491.97
2023-06-11T17:43:25.153Z,101484.66
2023-06-11T17:45:51.578Z,101492.44
2023-06-11T17:48:18.128Z,101496.34
2023-06-11T17:50:44.841Z,101482.19
2023-06-11T17:53:11.277Z,101483.75
2023-06-11T17:55:37.713Z,101492.47
2023-06-11T17:58:04.305Z,101489.16
2023-06-11T18:00:30.684Z,101485.47
2023-06-11T18:02:57.171Z,101488.63
2023-06-11T18:05:23.637Z,101491.63
2023-06-11T18:07:50.025Z,101491.63
2023-06-11T18:10:17.516Z,101491.63
2023-06-11T18:12:44.668Z,101489.34
2023-06-11T18:17:44.392Z,101494.06
2023-06-11T18:20:11.160Z,101504.06
2023-06-11T18:22:37.703Z,101498.91
2023-06-11T18:25:04.316Z,101497.06
2023-06-11T18:27:30.794Z,101496.59
2023-06-11T18:29:57.256Z,101501.16
2023-06-11T18:32:23.739Z,101494.13
2023-06-11T18:34:50.203Z,101501.41
2023-06-11T18:37:16.730Z,101500.84
2023-06-11T18:39:43.158Z,101499.97
2023-06-11T18:42:16.598Z,101503.97
2023-06-11T18:44:44.287Z,101498.19
2023-06-11T18:47:10.810Z,101497.16
2023-06-11T18:49:37.679Z,101493.06
2023-06-11T18:52:05.328Z,101497.94
2023-06-11T18:54:31.808Z,101496.56
2023-06-11T18:56:58.308Z,101498.25
2023-06-11T18:59:24.728Z,101496.69
2023-06-11T19:01:51.202Z,101507.34
2023-06-11T19:04:17.775Z,101501.28
2023-06-11T19:06:44.329Z,101508.84
2023-06-11T19:09:10.777Z,101511.53
2023-06-11T19:11:38.119Z,101512.78
2023-06-11T19:14:04.589Z,101509.00
2023-06-11T19:16:30.998Z,101511.78
2023-06-11T19:18:57.456Z,101515.16
2023-06-11T19:21:23.997Z,101522.00
2023-06-11T19:23:50.563Z,101524.88
2023-06-11T19:26:17.104Z,101531.50
2023-06-11T19:28:43.584Z,101535.16
2023-06-11T19:31:10.043Z,101531.00
2023-06-11T19:33:36.477Z,101533.56
2023-06-11T19:36:03.006Z,101538.03
2023-06-11T19:38:29.466Z,101539.19
2023-06-11T19:40:55.919Z,101543.63
2023-06-11T19:43:22.341Z,101555.22
2023-06-11T19:45:48.756Z,101554.00
2023-06-11T19:48:15.257Z,101557.53
2023-06-11T19:50:41.679Z,101552.53
2023-06-11T19:53:08.080Z,101565.50
2023-06-11T19:55:35.001Z,101562.09
2023-06-11T19:58:01.389Z,101566.47
2023-06-11T20:00:28.125Z,101580.22
2023-06-11T20:02:54.773Z,101577.31
2023-06-11T20:05:21.552Z,101578.44
2023-06-11T20:07:48.089Z,101584.41
2023-06-11T20:10:14.724Z,101578.88
2023-06-11T20:12:41.372Z,101579.22
2023-06-11T20:15:08.289Z,101587.03
2023-06-11T20:17:34.743Z,101594.97
2023-06-11T20:20:01.169Z,101588.78
2023-06-11T20:22:27.746Z,101592.28
2023-06-11T20:24:54.154Z,101598.97
2023-06-11T20:27:20.590Z,101598.44
2023-06-11T20:29:47.004Z,101610.59
2023-06-11T20:32:13.573Z,101607.38
2023-06-11T20:34:40.063Z,101617.84
2023-06-11T20:37:06.661Z,101610.41
2023-06-11T20:39:33.054Z,101607.22
2023-06-11T20:41:59.447Z,101604.03
2023-06-11T20:44:25.929Z,101616.91
2023-06-11T20:46:52.488Z,101617.97
2023-06-11T20:49:18.972Z,101616.41
2023-06-11T20:51:45.396Z,101624.47
2023-06-11T20:54:11.785Z,101614.88
2023-06-11T20:56:38.197Z,101629.56
2023-06-11T20:59:04.771Z,101620.50
2023-06-11T21:01:31.453Z,101623.47
2023-06-11T21:03:57.983Z,101624.84
2023-06-11T21:06:24.447Z,101614.69
2023-06-11T21:08:50.901Z,101626.50
2023-06-11T21:11:17.329Z,101617.94
2023-06-11T21:13:43.965Z,101613.16
2023-06-11T21:16:10.367Z,101623.59
2023-06-11T21:18:36.776Z,101617.72
2023-06-11T21:21:03.168Z,101624.09
2023-06-11T21:23:29.528Z,101616.38
2023-06-11T21:25:55.969Z,101615.31
2023-06-11T21:28:22.401Z,101610.78
2023-06-11T21:30:48.764Z,101604.38
2023-06-11T21:33:15.244Z,101614.00
2023-06-11T21:35:41.626Z,101607.59
2023-06-11T21:38:08.004Z,101605.44
2023-06-11T21:40:34.441Z,101607.06
2023-06-11T21:43:00.919Z,101613.47
2023-06-11T21:45:27.424Z,101623.88
2023-06-11T21:47:54.006Z,101607.56
2023-06-11T21:50:20.798Z,101611.06
2023-06-11T21:52:47.261Z,101613.72
2023-06-11T21:55:13.772Z,101614.78
2023-06-11T21:57:40.198Z,101614.47
2023-06-11T22:00:07.292Z,101621.69
2023-06-11T22:02:33.759Z,101617.97
2023-06-11T22:05:00.173Z,101612.09
2023-06-11T22:07:26.583Z,101616.06
2023-06-11T22:09:52.990Z,101617.63
2023-06-11T22:12:19.401Z,101628.06
2023-06-11T22:14:45.816Z,101622.72
2023-06-11T22:17:12.239Z,101631.25
2023-06-11T22:19:38.664Z,101637.38
2023-06-11T22:22:05.734Z,101637.88
2023-06-11T22:24:32.189Z,101635.72
2023-06-11T22:26:58.652Z,101640.78
2023-06-11T22:29:24.983Z,101634.38
2023-06-11T22:31:51.381Z,101635.69
2023-06-11T22:34:17.852Z,101639.94
2023-06-11T22:36:44.319Z,101634.88
2023-06-11T22:39:10.956Z,101640.41
2023-06-11T22:41:37.370Z,101636.09
2023-06-11T22:44:04.032Z,101631.25
2023-06-11T22:46:30.482Z,101637.84
2023-06-11T22:48:56.901Z,101640.47
2023-06-11T22:51:23.329Z,101632.97
2023-06-11T22:53:49.718Z,101637.22
2023-06-11T22:56:16.136Z,101646.81
2023-06-11T22:58:43.003Z,101642.00
2023-06-11T23:01:09.392Z,101646.22
2023-06-11T23:03:35.880Z,101646.72
2023-06-11T23:06:02.620Z,101649.06
2023-06-11T23:08:29.579Z,101649.31
2023-06-11T23:10:56.031Z,101645.00
2023-06-11T23:13:22.526Z,101656.94
2023-06-11T23:15:48.874Z,101651.59
2023-06-11T23:18:15.430Z,101647.56
2023-06-11T23:20:41.904Z,101648.63
2023-06-11T23:23:08.377Z,101661.59
2023-06-11T23:25:34.779Z,101644.28
2023-06-11T23:28:01.194Z,101649.06
2023-06-11T23:30:27.595Z,101647.94
2023-06-11T23:32:54.050Z,101641.22
2023-06-11T23:35:20.653Z,101649.41
2023-06-11T23:37:47.113Z,101639.97
2023-06-11T23:40:13.733Z,101651.81
2023-06-11T23:42:41.155Z,101639.72
2023-06-11T23:45:07.985Z,101643.84
2023-06-11T23:47:34.441Z,101645.06
2023-06-11T23:50:01.942Z,101645.84
2023-06-11T23:52:28.975Z,101640.84
2023-06-11T23:54:55.454Z,101639.50
2023-06-11T23:57:22.028Z,101631.56
2023-06-11T23:59:48.436Z,101641.47
